This is the latest recevied weather packets stored in our database for station/object LRTM. If no packets are shown the sender has not sent any weather packets the latest 10 day(s).
| Time | Temp. | Humidity | Pressure | Rain* | Wind** | Luminosity | Snow |
|---|---|---|---|---|---|---|---|
| 1777332806 | 1.11° C | 75% | 1020 hPa | - | - | - | - |
| 1777331906 | 1.11° C | 81% | 1020 hPa | - | - | - | - |
| 1777331006 | 1.11° C | 81% | 1020 hPa | - | - | - | - |
| 1777330106 | 2.22° C | 70% | 1020 hPa | - | - | - | - |
| 1777329207 | 2.22° C | 70% | 1020 hPa | - | - | - | - |
| 1777328307 | 1.11° C | 75% | 1020 hPa | - | - | - | - |
| 1777327407 | 1.11° C | 75% | 1020 hPa | - | - | - | - |
| 1777326506 | 3.89° C | 61% | 1020 hPa | - | - | - | - |
| 1777325607 | 3.89° C | 61% | 1020 hPa | - | - | - | - |
| 1777324706 | 5° C | 53% | 1019 hPa | - | - | - | - |
| 1777323807 | 5° C | 53% | 1019 hPa | - | - | - | - |
| 1777322907 | 5° C | 57% | 1020 hPa | - | - | - | - |
| 1777322006 | 5° C | 57% | 1020 hPa | - | - | - | - |
| 1777321104 | 8.89° C | 37% | 1020 hPa | - | - | - | - |
| 1777320207 | 8.89° C | 37% | 1020 hPa | - | - | - | - |
| 1777319307 | 10° C | 35% | 1019 hPa | - | - | - | - |
| 1777318441 | 10° C | 35% | 1019 hPa | - | - | - | - |
| 1777317507 | 10° C | 32% | 1019 hPa | - | - | - | - |
| 1777316607 | 10° C | 32% | 1019 hPa | - | - | - | - |
| 1777315706 | 11.11° C | 32% | 1019 hPa | - | - | - | - |
| 1777314807 | 11.11° C | 32% | 1019 hPa | - | - | - | - |
| 1777313906 | 11.11° C | 35% | 1019 hPa | - | - | - | - |
| 1777313006 | 11.11° C | 35% | 1019 hPa | - | - | - | - |
| 1777312106 | 12.22° C | 35% | 1018 hPa | - | - | - | - |
| 1777311206 | 12.22° C | 35% | 1018 hPa | - | - | - | - |
* Rain since midnight (hover to see other rain measurements)
** Current wind speed in m/s (hover to see current wind gust speed)